This is the latest recevied weather packets stored in our database for station/object EA2RCU-15. If no packets are shown the sender has not sent any weather packets the latest 1 day(s).
| Time | Temp. | Humidity | Pressure | Rain* | Wind** | Luminosity | Snow |
|---|---|---|---|---|---|---|---|
| 1778073005 | 16.67° C | 48% | 996 hPa | 0 mm | - | - | - |
| 1778072105 | 16.11° C | 48% | 1044 hPa | 0 mm | - | - | - |
| 1778070005 | 16.67° C | 44% | 996 hPa | 0 mm | - | - | - |
| 1778068805 | 17.78° C | 41% | 997 hPa | 0 mm | - | - | - |
| 1778067905 | 16.67° C | 47% | 997 hPa | 0 mm | - | - | - |
| 1778066405 | 16.11° C | 47% | 997 hPa | 0 mm | - | - | - |
| 1778064605 | 17.22° C | 39% | 997 hPa | 0 mm | - | - | - |
| 1778063705 | 17.22° C | 41% | 997 hPa | 0 mm | - | - | - |
| 1778061605 | 16.11° C | 49% | 997 hPa | 0 mm | - | - | - |
| 1778061005 | 15.56° C | 51% | 997 hPa | 0 mm | - | - | - |
| 1778059505 | 15.56° C | 50% | 997 hPa | 0 mm | - | - | - |
| 1778058905 | 16.11° C | 49% | 997 hPa | 0 mm | - | - | - |
| 1778058605 | 16.11° C | 48% | 997 hPa | 0 mm | - | - | - |
| 1778058305 | 16.11° C | 47% | 997 hPa | 0 mm | - | - | - |
| 1778058005 | 16.11° C | 47% | 997 hPa | 0 mm | - | - | - |
| 1778057705 | 16.67° C | 47% | 997 hPa | 0 mm | - | - | - |
| 1778057405 | 16.67° C | 50% | 997 hPa | 0 mm | - | - | - |
| 1778056505 | 16.11° C | 62% | 997 hPa | 0 mm | - | - | - |
| 1778055905 | 15° C | 65% | 997 hPa | 0 mm | - | - | - |
| 1778055305 | 14.44° C | 69% | 997 hPa | 0 mm | - | - | - |
| 1778054105 | 13.33° C | 73% | 996 hPa | 0 mm | - | - | - |
| 1778053805 | 13.33° C | 73% | 996 hPa | 0 mm | - | - | - |
| 1778052905 | 13.33° C | 76% | 998 hPa | 0 mm | - | - | - |
| 1778051105 | 11.67° C | 82% | 997 hPa | 0 mm | - | - | - |
| 1778049605 | 11.11° C | 84% | 997 hPa | 0 mm | - | - | - |
* Rain latest hour (hover to see other rain measurements)
** Current wind speed in m/s (hover to see current wind gust speed)